SE Lincoln WX Station Historical Data
 
Daily Summary for November 26, 2022 Units:  English    Metric   Both
Daily Weekly Monthly Yearly
  Current: High: Low: Average:
Temperature: 36 °F 39.4 °F 33.6 °F 36.5 °F
Dew Point: 27.2 °F 27.2 °F 24.9 °F 26 °F
Humidity: 70% 71% 59.9% 66%
Wind Speed: 1.6mph 4.4mph 0mph 2.5mph
Wind Gust: 6mph 10mph - -
WindSouth - - SSW
Pressure: 29.96 in 30.15 in 29.96 in -
Precipitation: 0.00 in      
 
 
Tabular Data for November 26, 2022
Time Temperature Dew Point Pressure Wind Wind Speed Wind Gust Humidity Rainfall Rate (Hourly) solar
00:04 39.3 °F 26.5 °F 30.15 in South 2.8 mph 8 mph 59.9% 0.00 in 0 W/m2
00:09 39.4 °F 26.7 °F 30.15 in SSW 3.2 mph 7 mph 60% 0.00 in 0 W/m2
00:14 39.4 °F 26.7 °F 30.15 in SSW 1.8 mph 5 mph 60% 0.00 in 0 W/m2
00:19 39.3 °F 26.6 °F 30.15 in SSW 2.2 mph 6 mph 60% 0.00 in 0 W/m2
00:24 39.3 °F 26.6 °F 30.15 in SSW 1.6 mph 4 mph 60% 0.00 in 0 W/m2
00:29 39.2 °F 26.8 °F 30.15 in SSW 2.8 mph 6 mph 60.9% 0.00 in 0 W/m2
00:34 39.2 °F 26.9 °F 30.15 in SSW 3.4 mph 7 mph 61% 0.00 in 0 W/m2
00:39 39.3 °F 27 °F 30.14 in SSW 2 mph 7 mph 61% 0.00 in 0 W/m2
00:44 39.4 °F 27.1 °F 30.14 in SSW 2.1 mph 6 mph 61% 0.00 in 0 W/m2
00:49 39.4 °F 27.1 °F 30.14 in SSW 2.6 mph 8 mph 61% 0.00 in 0 W/m2
00:54 39.4 °F 26.9 °F 30.14 in SSW 3.2 mph 9 mph 60.5% 0.00 in 0 W/m2
00:59 39.4 °F 26.7 °F 30.14 in SSW 3.1 mph 6 mph 60% 0.00 in 0 W/m2
01:04 39.4 °F 26.7 °F 30.13 in SSW 3.1 mph 6 mph 60% 0.00 in 0 W/m2
01:09 39.4 °F 26.7 °F 30.13 in SSW 2.5 mph 7 mph 60% 0.00 in 0 W/m2
01:14 39.3 °F 26.6 °F 30.14 in SSW 1.9 mph 5 mph 60% 0.00 in 0 W/m2
01:19 39.2 °F 26.5 °F 30.13 in SSW 3 mph 8 mph 60% 0.00 in 0 W/m2
01:24 39.2 °F 26.5 °F 30.13 in SSW 2.5 mph 6 mph 60% 0.00 in 0 W/m2
01:29 39.1 °F 26.4 °F 30.13 in SSW 2.3 mph 6 mph 60% 0.00 in 0 W/m2
01:34 39 °F 26.3 °F 30.13 in SW 2.3 mph 6 mph 60% 0.00 in 0 W/m2
01:39 38.9 °F 26.2 °F 30.12 in SW 2.9 mph 8 mph 60% 0.00 in 0 W/m2
01:44 38.9 °F 26.2 °F 30.12 in SSW 2.6 mph 6 mph 60% 0.00 in 0 W/m2
01:49 38.9 °F 26.2 °F 30.12 in SSW 2.7 mph 6 mph 60% 0.00 in 0 W/m2
01:54 38.8 °F 26.1 °F 30.11 in SSW 2.7 mph 7 mph 60% 0.00 in 0 W/m2
01:59 38.6 °F 26 °F 30.11 in SSW 2.4 mph 5 mph 60% 0.00 in 0 W/m2
02:04 38.5 °F 26.1 °F 30.11 in SSW 2.9 mph 6 mph 60.9% 0.00 in 0 W/m2
02:09 38.4 °F 26.1 °F 30.11 in SSW 2.4 mph 6 mph 61% 0.00 in 0 W/m2
02:14 38.2 °F 26 °F 30.10 in SSW 2.1 mph 6 mph 61% 0.00 in 0 W/m2
02:19 38 °F 25.8 °F 30.10 in SSW 2.1 mph 6 mph 61% 0.00 in 0 W/m2
02:24 37.8 °F 25.7 °F 30.10 in SSW 1.9 mph 6 mph 61.2% 0.00 in 0 W/m2
02:29 37.7 °F 25.9 °F 30.10 in SSW 2.4 mph 5 mph 62% 0.00 in 0 W/m2
02:34 37.6 °F 25.8 °F 30.10 in SSW 3.1 mph 7 mph 62% 0.00 in 0 W/m2
02:39 37.5 °F 25.7 °F 30.10 in SSW 2 mph 6 mph 62% 0.00 in 0 W/m2
02:44 37.5 °F 25.7 °F 30.10 in SW 2.8 mph 7 mph 62% 0.00 in 0 W/m2
02:49 37.5 °F 25.7 °F 30.10 in SW 2.8 mph 6 mph 62% 0.00 in 0 W/m2
02:54 37.4 °F 25.6 °F 30.09 in SW 1.5 mph 5 mph 62% 0.00 in 0 W/m2
02:59 37.3 °F 25.8 °F 30.09 in SSW 2.6 mph 6 mph 62.7% 0.00 in 0 W/m2
03:04 37.1 °F 25.7 °F 30.09 in SSW 2.3 mph 9 mph 63% 0.00 in 0 W/m2
03:09 36.9 °F 25.9 °F 30.09 in SSW 2.6 mph 8 mph 64% 0.00 in 0 W/m2
03:14 36.8 °F 25.7 °F 30.09 in SSW 2.5 mph 6 mph 64% 0.00 in 0 W/m2
03:19 36.6 °F 25.6 °F 30.08 in SW 2.7 mph 6 mph 64% 0.00 in 0 W/m2
03:24 36.5 °F 25.5 °F 30.08 in SSW 2.3 mph 6 mph 64% 0.00 in 0 W/m2
03:29 36.4 °F 25.7 °F 30.08 in SSW 2.4 mph 6 mph 64.8% 0.00 in 0 W/m2
03:34 36.2 °F 25.6 °F 30.08 in SSW 2.6 mph 6 mph 65% 0.00 in 0 W/m2
03:39 36 °F 25.6 °F 30.08 in SSW 2.9 mph 5 mph 65.5% 0.00 in 0 W/m2
03:44 35.9 °F 25.6 °F 30.07 in South 2.3 mph 6 mph 66% 0.00 in 0 W/m2
03:49 35.7 °F 25.7 °F 30.07 in SSW 2.7 mph 7 mph 66.7% 0.00 in 0 W/m2
03:54 35.5 °F 25.7 °F 30.06 in SSW 3.3 mph 6 mph 67.1% 0.00 in 0 W/m2
03:59 35.4 °F 25.8 °F 30.06 in SSW 2.9 mph 7 mph 67.8% 0.00 in 0 W/m2
04:04 35.4 °F 25.9 °F 30.06 in SW 3.3 mph 8 mph 68% 0.00 in 0 W/m2
04:09 35.4 °F 25.9 °F 30.06 in SSW 2.7 mph 7 mph 68% 0.00 in 0 W/m2
04:14 35.4 °F 25.9 °F 30.06 in SSW 2.3 mph 6 mph 68% 0.00 in 0 W/m2
04:19 35.5 °F 26 °F 30.05 in SW 2.3 mph 7 mph 68% 0.00 in 0 W/m2
04:24 35.5 °F 26 °F 30.05 in SSW 2.3 mph 6 mph 68% 0.00 in 0 W/m2
04:29 35.4 °F 25.9 °F 30.05 in SSW 2.8 mph 6 mph 68% 0.00 in 0 W/m2
04:34 35.4 °F 25.9 °F 30.05 in SSW 2.6 mph 5 mph 68% 0.00 in 0 W/m2
04:39 35.3 °F 25.8 °F 30.05 in SSW 2.7 mph 6 mph 68% 0.00 in 0 W/m2
04:44 35.2 °F 25.7 °F 30.05 in SSW 2 mph 6 mph 68% 0.00 in 0 W/m2
04:49 35 °F 25.7 °F 30.04 in SSW 2.6 mph 7 mph 68.5% 0.00 in 0 W/m2
04:54 34.8 °F 25.7 °F 30.04 in SSW 2.1 mph 6 mph 69% 0.00 in 0 W/m2
04:59 34.7 °F 25.5 °F 30.03 in SSW 1.7 mph 6 mph 69% 0.00 in 0 W/m2
05:04 34.6 °F 25.4 °F 30.03 in SW 1.8 mph 4 mph 69% 0.00 in 0 W/m2
05:09 34.4 °F 25.5 °F 30.02 in SSW 0.7 mph 3 mph 69.6% 0.00 in 0 W/m2
05:14 34.4 °F 25.6 °F 30.01 in SSW 0.3 mph 3 mph 70% 0.00 in 0 W/m2
05:19 34.3 °F 25.5 °F 30.00 in Calm   1 mph 70% 0.00 in 0 W/m2
05:24 34.2 °F 25.4 °F 29.99 in SSW 0.1 mph 2 mph 69.8% 0.00 in 0 W/m2
05:29 33.9 °F 25.2 °F 29.98 in SSW 0.3 mph 2 mph 70% 0.00 in 0 W/m2
05:34 33.6 °F 24.9 °F 29.98 in SSW 0.8 mph 3 mph 70% 0.00 in 0 W/m2
05:39 33.6 °F 25 °F 29.99 in South 1 mph 5 mph 70.4% 0.00 in 0 W/m2
05:44 33.6 °F 25.1 °F 29.99 in South 1.3 mph 5 mph 70.8% 0.00 in 0 W/m2
05:49 33.7 °F 25.3 °F 29.98 in South 2.1 mph 6 mph 71% 0.00 in 0 W/m2
05:54 33.9 °F 25.5 °F 29.98 in South 2.1 mph 6 mph 71% 0.00 in 0 W/m2
05:59 34.1 °F 25.7 °F 29.98 in South 1.8 mph 7 mph 71% 0.00 in 0 W/m2
06:04 34.2 °F 25.7 °F 29.99 in South 3.2 mph 8 mph 70.7% 0.00 in 0 W/m2
06:09 34.5 °F 25.7 °F 29.99 in South 3.9 mph 8 mph 70% 0.00 in 0 W/m2
06:14 34.7 °F 25.9 °F 29.99 in South 3.4 mph 7 mph 70% 0.00 in 0 W/m2
06:19 34.7 °F 25.7 °F 30.00 in South 3.6 mph 9 mph 69.3% 0.00 in 0 W/m2
06:24 34.7 °F 25.6 °F 30.00 in SSE 3.8 mph 9 mph 69% 0.00 in 0 W/m2
06:29 34.6 °F 25.7 °F 29.99 in South 3.6 mph 9 mph 69.7% 0.00 in 0 W/m2
06:34 34.5 °F 25.8 °F 29.99 in South 3.6 mph 8 mph 70% 0.00 in 0 W/m2
06:39 34.6 °F 25.8 °F 29.99 in South 3.1 mph 7 mph 70% 0.00 in 0 W/m2
06:44 34.6 °F 25.8 °F 29.99 in South 3.2 mph 8 mph 70% 0.00 in 0 W/m2
06:49 34.7 °F 25.9 °F 29.99 in South 3.4 mph 10 mph 70% 0.00 in 0 W/m2
06:54 34.7 °F 25.9 °F 29.99 in South 2.2 mph 7 mph 70% 0.00 in 0 W/m2
06:59 34.9 °F 26.1 °F 29.99 in South 4.4 mph 8 mph 70% 0.00 in 0 W/m2
07:04 35.1 °F 26.3 °F 29.98 in South 2.9 mph 6 mph 70% 0.00 in 0 W/m2
07:09 35.2 °F 26.4 °F 29.98 in South 3.4 mph 8 mph 70% 0.00 in 0 W/m2
07:14 35.4 °F 26.6 °F 29.99 in South 3.8 mph 8 mph 70% 0.00 in 5 W/m2
07:19 35.6 °F 26.8 °F 29.99 in South 3.4 mph 7 mph 70% 0.00 in 5 W/m2
07:24 35.7 °F 26.9 °F 29.98 in South 4.1 mph 9 mph 70% 0.00 in 5 W/m2
07:29 35.8 °F 27 °F 29.97 in SSW 3.4 mph 6 mph 70% 0.00 in 7 W/m2
07:34 36 °F 27.1 °F 29.97 in South 2.9 mph 6 mph 70% 0.00 in 9 W/m2
07:39 36 °F 27.2 °F 29.96 in South 1.6 mph 6 mph 70% 0.00 in 14 W/m2
66th and South
Compliments of Weather Underground - 6.68 mb